createdAt,value
2019-04-14T00:01:30.465Z,102744.27
2019-04-14T00:04:40.132Z,102737.20
2019-04-14T00:07:44.931Z,102737.42
2019-04-14T00:10:49.073Z,102747.26
2019-04-14T00:13:52.910Z,102737.34
2019-04-14T00:16:57.481Z,102736.67
2019-04-14T00:20:01.421Z,102736.53
2019-04-14T00:23:06.508Z,102743.94
2019-04-14T00:26:31.509Z,102743.02
2019-04-14T00:29:35.610Z,102736.80
2019-04-14T00:32:47.123Z,102739.31
2019-04-14T00:36:10.831Z,102735.51
2019-04-14T00:39:25.120Z,102735.75
2019-04-14T00:42:40.899Z,102736.50
2019-04-14T00:45:52.815Z,102735.05
2019-04-14T00:48:53.977Z,102738.66
2019-04-14T00:51:59.189Z,102742.55
2019-04-14T00:55:03.380Z,102735.48
2019-04-14T00:58:08.159Z,102731.56
2019-04-14T01:01:13.229Z,102732.52
2019-04-14T01:04:17.258Z,102733.13
2019-04-14T01:07:21.635Z,102737.38
2019-04-14T01:10:25.685Z,102727.30
2019-04-14T01:13:29.465Z,102732.03
2019-04-14T01:16:34.094Z,102735.29
2019-04-14T01:19:37.959Z,102729.77
2019-04-14T01:22:42.437Z,102724.15
2019-04-14T01:25:46.296Z,102723.46
2019-04-14T01:28:50.437Z,102731.92
2019-04-14T01:31:54.310Z,102727.65
2019-04-14T01:34:58.912Z,102727.06
2019-04-14T01:38:03.775Z,102727.38
2019-04-14T01:41:08.557Z,102727.53
2019-04-14T01:44:13.522Z,102733.89
2019-04-14T01:47:18.173Z,102731.92
2019-04-14T01:50:25.948Z,102736.11
2019-04-14T01:53:46.771Z,102738.58
2019-04-14T01:57:08.912Z,102734.76
2019-04-14T02:00:42.408Z,102746.84
2019-04-14T02:03:47.651Z,102745.09
2019-04-14T02:06:52.733Z,102744.24
2019-04-14T02:09:57.577Z,102743.88
2019-04-14T02:13:02.725Z,102739.45
2019-04-14T02:16:18.477Z,102748.73
2019-04-14T02:19:13.212Z,102742.49
2019-04-14T02:22:18.112Z,102746.62
2019-04-14T02:25:23.107Z,102750.52
2019-04-14T02:28:27.043Z,102746.41
2019-04-14T02:31:53.152Z,102749.97
2019-04-14T02:35:03.007Z,102753.70
2019-04-14T02:38:11.973Z,102750.52
2019-04-14T02:41:21.518Z,102747.97
2019-04-14T02:47:47.267Z,102741.64
2019-04-14T02:53:44.260Z,102749.09
2019-04-14T02:56:43.655Z,102753.06
2019-04-14T02:59:52.866Z,102761.56
2019-04-14T03:02:47.458Z,102768.75
2019-04-14T03:06:01.104Z,102766.61
2019-04-14T03:09:07.974Z,102768.13
2019-04-14T03:12:11.349Z,102769.98
2019-04-14T03:15:20.061Z,102772.47
2019-04-14T03:18:52.478Z,102771.78
2019-04-14T03:22:37.048Z,102773.09
2019-04-14T03:25:22.534Z,102772.78
2019-04-14T03:31:59.548Z,102773.77
2019-04-14T03:35:03.573Z,102767.00
2019-04-14T03:41:14.365Z,102767.46
2019-04-14T03:44:11.869Z,102765.45
2019-04-14T03:47:15.155Z,102764.19
2019-04-14T03:50:21.822Z,102761.74
2019-04-14T03:56:40.000Z,102755.76
2019-04-14T03:59:43.934Z,102754.67
2019-04-14T04:02:48.790Z,102759.73
2019-04-14T04:05:52.744Z,102751.67
2019-04-14T04:08:57.447Z,102759.88
2019-04-14T04:12:01.400Z,102759.35
2019-04-14T04:15:06.195Z,102758.24
2019-04-14T04:18:15.606Z,102758.09
2019-04-14T04:21:44.473Z,102757.38
2019-04-14T04:24:56.540Z,102762.17
2019-04-14T04:28:23.207Z,102760.88
2019-04-14T04:31:48.881Z,102768.43
2019-04-14T04:35:02.624Z,102763.11
2019-04-14T04:38:18.018Z,102768.23
2019-04-14T04:41:23.271Z,102765.37
2019-04-14T04:44:27.160Z,102769.22
2019-04-14T04:47:31.639Z,102788.84
2019-04-14T04:50:36.705Z,102775.84
2019-04-14T04:53:41.912Z,102785.02
2019-04-14T04:56:45.830Z,102795.34
2019-04-14T04:59:49.717Z,102789.63
2019-04-14T05:02:53.583Z,102800.92
2019-04-14T05:06:45.948Z,102797.98
2019-04-14T05:10:08.999Z,102793.56
2019-04-14T05:13:16.317Z,102797.27
2019-04-14T05:16:21.225Z,102797.18
2019-04-14T05:19:31.357Z,102801.65
2019-04-14T05:22:31.114Z,102798.58
2019-04-14T05:25:34.935Z,102803.75
2019-04-14T05:28:39.639Z,102798.20
2019-04-14T05:31:44.643Z,102807.17
2019-04-14T05:34:48.712Z,102800.58
2019-04-14T05:37:53.666Z,102805.54
2019-04-14T05:40:58.345Z,102812.11
2019-04-14T05:44:04.487Z,102808.16
2019-04-14T05:47:08.684Z,102807.00
2019-04-14T05:50:13.695Z,102820.82
2019-04-14T05:53:17.695Z,102825.03
2019-04-14T05:56:21.513Z,102825.92
2019-04-14T05:59:26.375Z,102826.68
2019-04-14T06:02:31.816Z,102833.04
2019-04-14T06:05:36.208Z,102830.79
2019-04-14T06:08:40.272Z,102832.31
2019-04-14T06:11:44.072Z,102843.48
2019-04-14T06:14:48.010Z,102830.59
2019-04-14T06:17:51.820Z,102839.87
2019-04-14T06:20:55.737Z,102847.53
2019-04-14T06:23:59.612Z,102846.66
2019-04-14T06:27:03.463Z,102845.12
2019-04-14T06:30:33.239Z,102858.66
2019-04-14T06:33:56.073Z,102849.87
2019-04-14T06:37:21.690Z,102857.05
2019-04-14T06:40:26.589Z,102858.89
2019-04-14T06:43:30.425Z,102864.20
2019-04-14T06:46:34.325Z,102864.61
2019-04-14T06:49:48.396Z,102871.05
2019-04-14T06:52:43.706Z,102867.34
2019-04-14T06:55:47.557Z,102867.95
2019-04-14T06:58:51.371Z,102875.61
2019-04-14T07:01:55.278Z,102872.89
2019-04-14T07:04:59.057Z,102872.45
2019-04-14T07:08:02.857Z,102878.38
2019-04-14T07:11:06.748Z,102875.62
2019-04-14T07:14:10.588Z,102875.37
2019-04-14T07:17:14.398Z,102868.10
2019-04-14T07:20:18.377Z,102868.12
2019-04-14T07:23:22.183Z,102866.95
2019-04-14T07:26:25.997Z,102870.11
2019-04-14T07:29:35.560Z,102866.42
2019-04-14T07:33:04.606Z,102862.23
2019-04-14T07:36:29.038Z,102867.56
2019-04-14T07:39:39.743Z,102865.87
2019-04-14T07:42:51.399Z,102864.92
2019-04-14T07:46:01.918Z,102867.88
2019-04-14T07:49:22.532Z,102869.72
2019-04-14T07:52:37.091Z,102871.64
2019-04-14T07:55:44.690Z,102870.23
2019-04-14T07:59:06.634Z,102866.11
2019-04-14T08:02:28.240Z,102876.60
2019-04-14T08:05:35.422Z,102878.20
2019-04-14T08:08:39.273Z,102875.30
2019-04-14T08:11:43.105Z,102876.70
2019-04-14T08:14:46.941Z,102870.06
2019-04-14T08:17:50.825Z,102876.98
2019-04-14T08:20:54.636Z,102877.98
2019-04-14T08:23:58.438Z,102879.61
2019-04-14T08:27:02.267Z,102875.20
2019-04-14T08:30:07.372Z,102883.00
2019-04-14T08:33:11.180Z,102886.22
2019-04-14T08:36:15.041Z,102893.27
2019-04-14T08:39:18.920Z,102896.59
2019-04-14T08:42:44.946Z,102894.59
2019-04-14T08:46:23.114Z,102899.67
2019-04-14T08:49:49.827Z,102897.53
2019-04-14T08:53:00.109Z,102900.34
2019-04-14T08:56:13.955Z,102906.59
2019-04-14T08:59:45.960Z,102904.87
2019-04-14T09:03:14.708Z,102906.98
2019-04-14T09:06:22.088Z,102909.61
2019-04-14T09:09:28.367Z,102903.48
2019-04-14T09:12:34.838Z,102907.55
2019-04-14T09:15:38.725Z,102905.59
2019-04-14T09:18:42.529Z,102907.15
2019-04-14T09:21:46.361Z,102906.84
2019-04-14T09:24:50.385Z,102909.48
2019-04-14T09:27:54.196Z,102905.77
2019-04-14T09:30:58.056Z,102903.19
2019-04-14T09:34:01.859Z,102905.95
2019-04-14T09:37:05.764Z,102904.20
2019-04-14T09:40:09.659Z,102907.38
2019-04-14T09:43:13.560Z,102912.72
2019-04-14T09:46:17.425Z,102917.18
2019-04-14T09:49:21.338Z,102917.86
2019-04-14T09:52:25.220Z,102917.40
2019-04-14T09:55:29.122Z,102925.98
2019-04-14T09:58:32.987Z,102926.23
2019-04-14T10:01:36.846Z,102929.13
2019-04-14T10:04:40.695Z,102935.44
2019-04-14T10:07:44.548Z,102946.17
2019-04-14T10:10:48.448Z,102939.53
2019-04-14T10:13:52.246Z,102941.41
2019-04-14T10:16:56.089Z,102931.41
2019-04-14T10:19:59.962Z,102931.95
2019-04-14T10:23:03.824Z,102934.08
2019-04-14T10:26:07.714Z,102936.34
2019-04-14T10:29:11.568Z,102927.16
2019-04-14T10:32:15.406Z,102931.56
2019-04-14T10:35:19.229Z,102938.08
2019-04-14T10:38:23.042Z,102932.24
2019-04-14T10:41:26.849Z,102933.72
2019-04-14T10:44:30.708Z,102940.78
2019-04-14T10:47:34.517Z,102941.64
2019-04-14T10:50:38.464Z,102945.25
2019-04-14T10:53:42.334Z,102947.89
2019-04-14T10:56:46.244Z,102937.27
2019-04-14T10:59:50.049Z,102937.23
2019-04-14T11:02:53.947Z,102948.48
2019-04-14T11:06:05.369Z,102943.59
2019-04-14T11:09:13.970Z,102945.78
2019-04-14T11:12:17.946Z,102946.13
2019-04-14T11:15:21.748Z,102952.53
2019-04-14T11:18:25.576Z,102952.36
2019-04-14T11:21:41.609Z,102941.41
2019-04-14T11:24:34.895Z,102942.16
2019-04-14T11:27:38.739Z,102940.44
2019-04-14T11:30:42.559Z,102931.61
2019-04-14T11:34:02.373Z,102929.84
2019-04-14T11:37:14.187Z,102924.80
2019-04-14T11:40:20.645Z,102933.24
2019-04-14T11:43:24.456Z,102924.92
2019-04-14T11:46:28.287Z,102926.08
2019-04-14T11:49:34.213Z,102928.34
2019-04-14T11:52:38.014Z,102923.92
2019-04-14T11:55:41.830Z,102929.59
2019-04-14T11:58:45.722Z,102925.09
2019-04-14T12:01:57.001Z,102928.48
2019-04-14T12:05:12.387Z,102921.18
2019-04-14T12:08:24.207Z,102921.41
2019-04-14T12:11:28.035Z,102926.41
2019-04-14T12:14:31.948Z,102917.19
2019-04-14T12:17:35.789Z,102918.47
2019-04-14T12:20:39.597Z,102923.58
2019-04-14T12:23:43.424Z,102913.69
2019-04-14T12:26:47.311Z,102925.94
2019-04-14T12:29:52.223Z,102924.91
2019-04-14T12:32:56.089Z,102928.09
2019-04-14T12:35:59.969Z,102935.66
2019-04-14T12:39:05.518Z,102922.72
2019-04-14T12:42:21.617Z,102935.59
2019-04-14T12:46:05.954Z,102947.19
2019-04-14T12:49:13.913Z,102942.26
2019-04-14T12:52:21.962Z,102947.02
2019-04-14T12:55:25.585Z,102955.30
2019-04-14T12:58:54.461Z,102947.15
2019-04-14T13:02:35.378Z,102947.61
2019-04-14T13:05:39.204Z,102947.64
2019-04-14T13:08:43.175Z,102952.49
2019-04-14T13:11:47.051Z,102944.87
2019-04-14T13:14:50.883Z,102943.43
2019-04-14T13:17:55.958Z,102931.47
2019-04-14T13:20:59.791Z,102932.42
2019-04-14T13:24:03.685Z,102930.11
2019-04-14T13:27:07.676Z,102923.19
2019-04-14T13:30:13.570Z,102921.75
2019-04-14T13:33:17.376Z,102922.28
2019-04-14T13:36:21.211Z,102917.14
2019-04-14T13:39:25.072Z,102923.19
2019-04-14T13:42:28.817Z,102918.89
2019-04-14T13:45:32.637Z,102909.84
2019-04-14T13:48:36.453Z,102913.88
2019-04-14T13:51:40.373Z,102918.89
2019-04-14T13:54:44.182Z,102922.45
2019-04-14T13:57:48.040Z,102924.95
2019-04-14T14:00:51.925Z,102920.19
2019-04-14T14:03:55.751Z,102914.15
2019-04-14T14:06:59.548Z,102916.83
2019-04-14T14:10:03.559Z,102909.98
2019-04-14T14:13:25.005Z,102898.71
2019-04-14T14:16:43.470Z,102896.48
2019-04-14T14:20:12.367Z,102901.95
2019-04-14T14:23:44.640Z,102901.53
2019-04-14T14:26:49.785Z,102898.83
2019-04-14T14:29:53.607Z,102888.08
2019-04-14T14:32:57.550Z,102891.42
2019-04-14T14:36:01.407Z,102894.05
2019-04-14T14:39:08.383Z,102897.09
2019-04-14T14:42:12.197Z,102895.66
2019-04-14T14:45:27.441Z,102894.95
2019-04-14T14:48:42.341Z,102902.01
2019-04-14T14:51:51.720Z,102898.77
2019-04-14T14:54:55.574Z,102892.91
2019-04-14T14:57:59.397Z,102901.48
2019-04-14T15:01:05.098Z,102906.23
2019-04-14T15:04:08.976Z,102902.42
2019-04-14T15:07:12.831Z,102910.85
2019-04-14T15:10:16.652Z,102896.19
2019-04-14T15:13:20.501Z,102906.59
2019-04-14T15:16:24.360Z,102896.94
2019-04-14T15:19:28.178Z,102910.91
2019-04-14T15:22:31.977Z,102910.72
2019-04-14T15:25:35.900Z,102903.11
2019-04-14T15:28:39.706Z,102902.78
2019-04-14T15:31:43.513Z,102903.55
2019-04-14T15:34:47.343Z,102906.56
2019-04-14T15:37:51.226Z,102899.00
2019-04-14T15:40:55.027Z,102906.59
2019-04-14T15:43:58.839Z,102901.64
2019-04-14T15:47:02.641Z,102903.42
2019-04-14T15:50:07.327Z,102898.58
2019-04-14T15:53:11.324Z,102908.11
2019-04-14T15:56:24.392Z,102911.98
2019-04-14T15:59:52.186Z,102909.53
2019-04-14T16:03:15.145Z,102904.41
2019-04-14T16:06:33.728Z,102918.89
2019-04-14T16:10:02.498Z,102910.58
2019-04-14T16:13:11.689Z,102912.44
2019-04-14T16:16:23.147Z,102916.61
2019-04-14T16:19:32.711Z,102913.80
2019-04-14T16:22:38.922Z,102913.86
2019-04-14T16:25:53.902Z,102906.45
2019-04-14T16:29:03.252Z,102908.34
2019-04-14T16:32:20.912Z,102906.96
2019-04-14T16:35:27.899Z,102910.89
2019-04-14T16:38:31.754Z,102905.63
2019-04-14T16:41:35.559Z,102903.11
2019-04-14T16:44:39.368Z,102915.19
2019-04-14T16:47:43.156Z,102907.22
2019-04-14T16:50:47.003Z,102907.81
2019-04-14T16:54:02.606Z,102916.34
2019-04-14T16:57:33.484Z,102914.95
2019-04-14T17:00:43.273Z,102913.92
2019-04-14T17:03:47.104Z,102919.59
2019-04-14T17:06:50.895Z,102925.50
2019-04-14T17:09:54.733Z,102915.31
2019-04-14T17:12:58.631Z,102922.89
2019-04-14T17:16:20.330Z,102923.45
2019-04-14T17:19:40.878Z,102925.47
2019-04-14T17:22:55.964Z,102920.97
2019-04-14T17:26:18.847Z,102924.29
2019-04-14T17:29:27.864Z,102920.48
2019-04-14T17:32:42.541Z,102929.16
2019-04-14T17:36:11.437Z,102932.42
2019-04-14T17:39:26.915Z,102927.77
2019-04-14T17:42:36.310Z,102928.64
2019-04-14T17:45:50.722Z,102935.52
2019-04-14T17:49:12.527Z,102932.06
2019-04-14T17:52:28.148Z,102940.12
2019-04-14T17:55:59.222Z,102939.90
2019-04-14T17:59:12.575Z,102948.35
2019-04-14T18:02:38.267Z,102945.95
2019-04-14T18:05:45.584Z,102951.91
2019-04-14T18:09:14.201Z,102951.86
2019-04-14T18:12:25.739Z,102960.25
2019-04-14T18:15:48.964Z,102971.13
2019-04-14T18:19:00.086Z,102968.83
2019-04-14T18:22:03.983Z,102980.95
2019-04-14T18:25:08.639Z,102990.81
2019-04-14T18:28:19.965Z,102989.05
2019-04-14T18:31:40.489Z,102988.28
2019-04-14T18:35:01.015Z,102993.17
2019-04-14T18:38:27.576Z,102994.45
2019-04-14T18:41:48.157Z,102998.10
2019-04-14T18:45:17.228Z,103002.22
2019-04-14T18:48:38.712Z,103004.53
2019-04-14T18:51:48.316Z,103007.97
2019-04-14T18:54:57.354Z,103009.02
2019-04-14T18:58:30.052Z,103017.29
2019-04-14T19:01:36.930Z,103020.89
2019-04-14T19:04:40.897Z,103019.68
2019-04-14T19:07:44.807Z,103018.61
2019-04-14T19:11:01.410Z,103019.08
2019-04-14T19:14:06.481Z,103014.45
2019-04-14T19:17:17.188Z,103015.70
2019-04-14T19:20:22.001Z,103020.72
2019-04-14T19:23:25.806Z,103026.05
2019-04-14T19:26:29.701Z,103033.12
2019-04-14T19:29:33.502Z,103030.59
2019-04-14T19:32:37.336Z,103035.41
2019-04-14T19:35:41.171Z,103041.81
2019-04-14T19:38:44.998Z,103046.47
2019-04-14T19:41:48.815Z,103046.87
2019-04-14T19:44:52.609Z,103049.38
2019-04-14T19:47:56.439Z,103047.86
2019-04-14T19:51:00.249Z,103044.22
2019-04-14T19:54:04.156Z,103058.98
2019-04-14T19:57:08.057Z,103065.08
2019-04-14T20:00:12.346Z,103071.33
2019-04-14T20:03:16.223Z,103075.86
2019-04-14T20:06:20.096Z,103072.56
2019-04-14T20:09:24.006Z,103078.28
2019-04-14T20:12:27.933Z,103068.80
2019-04-14T20:15:50.764Z,103067.37
2019-04-14T20:19:19.658Z,103073.24
2019-04-14T20:22:35.358Z,103070.94
2019-04-14T20:26:10.584Z,103070.89
2019-04-14T20:29:17.732Z,103078.13
2019-04-14T20:32:24.310Z,103073.06
2019-04-14T20:35:28.217Z,103069.73
2019-04-14T20:38:32.040Z,103065.39
2019-04-14T20:41:35.893Z,103066.70
2019-04-14T20:44:39.680Z,103070.20
2019-04-14T20:47:43.564Z,103072.11
2019-04-14T20:50:47.361Z,103079.97
2019-04-14T20:53:51.233Z,103077.25
2019-04-14T20:56:55.054Z,103079.63
2019-04-14T20:59:58.924Z,103084.54
2019-04-14T21:03:22.595Z,103077.09
2019-04-14T21:06:37.890Z,103076.01
2019-04-14T21:10:03.049Z,103082.80
2019-04-14T21:13:16.600Z,103083.30
2019-04-14T21:16:48.667Z,103079.70
2019-04-14T21:20:15.286Z,103077.25
2019-04-14T21:23:31.998Z,103080.66
2019-04-14T21:26:53.016Z,103083.77
2019-04-14T21:30:19.007Z,103086.87
2019-04-14T21:33:53.937Z,103092.16
2019-04-14T21:37:09.746Z,103093.45
2019-04-14T21:40:26.875Z,103100.08
2019-04-14T21:43:30.707Z,103104.69
2019-04-14T21:46:34.500Z,103109.03
2019-04-14T21:49:38.297Z,103105.00
2019-04-14T21:52:44.838Z,103109.25
2019-04-14T21:55:48.651Z,103120.04
2019-04-14T21:59:07.506Z,103116.92
2019-04-14T22:02:28.296Z,103120.41
2019-04-14T22:05:43.694Z,103126.83
2019-04-14T22:08:49.787Z,103130.86
2019-04-14T22:11:53.596Z,103127.20
2019-04-14T22:14:57.439Z,103121.53
2019-04-14T22:18:01.332Z,103128.06
2019-04-14T22:21:05.232Z,103128.35
2019-04-14T22:24:09.130Z,103133.88
2019-04-14T22:27:12.959Z,103133.14
2019-04-14T22:30:17.707Z,103139.95
2019-04-14T22:33:21.700Z,103142.61
2019-04-14T22:36:25.599Z,103141.42
2019-04-14T22:39:29.438Z,103141.67
2019-04-14T22:42:33.276Z,103150.27
2019-04-14T22:45:37.177Z,103146.94
2019-04-14T22:48:41.042Z,103147.22
2019-04-14T22:51:44.848Z,103147.52
2019-04-14T22:54:48.655Z,103151.66
2019-04-14T22:57:52.546Z,103152.13
2019-04-14T23:01:02.542Z,103153.92
2019-04-14T23:04:15.290Z,103163.44
2019-04-14T23:07:32.919Z,103166.91
2019-04-14T23:10:55.802Z,103161.08
2019-04-14T23:14:34.075Z,103162.39
2019-04-14T23:17:42.837Z,103175.41
2019-04-14T23:20:51.107Z,103176.69
2019-04-14T23:24:26.571Z,103179.08
2019-04-14T23:27:30.429Z,103180.39
2019-04-14T23:30:34.315Z,103188.54
2019-04-14T23:33:38.144Z,103182.37
2019-04-14T23:36:42.047Z,103184.23
2019-04-14T23:39:45.825Z,103175.19
2019-04-14T23:42:49.742Z,103171.63
2019-04-14T23:45:53.708Z,103170.42
2019-04-14T23:48:57.583Z,103167.78
2019-04-14T23:52:01.393Z,103169.30
2019-04-14T23:55:05.519Z,103172.58
2019-04-14T23:58:09.464Z,103169.91
